sensor_id;sensor_type;location;lat;lon;timestamp;P1;durP1;ratioP1;P2;durP2;ratioP2
47335;SDS011;33068;51.990;5.926;2023-02-02T00:01:21;15.50;;;2.80;;
47335;SDS011;33068;51.990;5.926;2023-02-02T00:03:49;18.23;;;3.42;;
47335;SDS011;33068;51.990;5.926;2023-02-02T00:06:16;13.82;;;3.15;;
47335;SDS011;33068;51.990;5.926;2023-02-02T00:08:44;22.17;;;3.92;;
47335;SDS011;33068;51.990;5.926;2023-02-02T00:11:11;19.73;;;3.92;;
47335;SDS011;33068;51.990;5.926;2023-02-02T00:13:40;18.80;;;3.90;;
47335;SDS011;33068;51.990;5.926;2023-02-02T00:16:20;16.83;;;3.00;;
47335;SDS011;33068;51.990;5.926;2023-02-02T00:19:08;23.10;;;4.25;;
47335;SDS011;33068;51.990;5.926;2023-02-02T00:21:37;19.08;;;3.17;;
47335;SDS011;33068;51.990;5.926;2023-02-02T00:24:05;21.42;;;4.32;;
47335;SDS011;33068;51.990;5.926;2023-02-02T00:26:49;17.15;;;3.58;;
47335;SDS011;33068;51.990;5.926;2023-02-02T00:32:15;38.58;;;4.25;;
47335;SDS011;33068;51.990;5.926;2023-02-02T00:35:02;27.50;;;4.22;;
47335;SDS011;33068;51.990;5.926;2023-02-02T00:37:41;21.77;;;3.20;;
47335;SDS011;33068;51.990;5.926;2023-02-02T00:40:11;15.10;;;3.03;;
47335;SDS011;33068;51.990;5.926;2023-02-02T00:42:41;18.10;;;3.50;;
47335;SDS011;33068;51.990;5.926;2023-02-02T00:45:15;22.58;;;3.45;;
47335;SDS011;33068;51.990;5.926;2023-02-02T00:47:44;22.02;;;3.40;;
47335;SDS011;33068;51.990;5.926;2023-02-02T00:50:13;18.33;;;3.15;;
47335;SDS011;33068;51.990;5.926;2023-02-02T00:52:45;20.67;;;3.85;;
47335;SDS011;33068;51.990;5.926;2023-02-02T00:55:13;22.35;;;3.58;;
47335;SDS011;33068;51.990;5.926;2023-02-02T00:57:41;22.73;;;2.58;;
47335;SDS011;33068;51.990;5.926;2023-02-02T01:00:11;26.30;;;3.83;;
47335;SDS011;33068;51.990;5.926;2023-02-02T01:02:41;16.70;;;3.25;;
47335;SDS011;33068;51.990;5.926;2023-02-02T01:05:08;20.95;;;3.55;;
47335;SDS011;33068;51.990;5.926;2023-02-02T01:07:37;19.88;;;4.05;;
47335;SDS011;33068;51.990;5.926;2023-02-02T01:10:05;16.27;;;3.00;;
47335;SDS011;33068;51.990;5.926;2023-02-02T01:12:34;27.00;;;3.40;;
47335;SDS011;33068;51.990;5.926;2023-02-02T01:15:04;24.58;;;4.22;;
47335;SDS011;33068;51.990;5.926;2023-02-02T01:17:32;27.52;;;4.88;;
47335;SDS011;33068;51.990;5.926;2023-02-02T01:20:01;24.98;;;4.00;;
47335;SDS011;33068;51.990;5.926;2023-02-02T01:22:28;21.10;;;3.95;;
47335;SDS011;33068;51.990;5.926;2023-02-02T01:24:55;21.08;;;3.53;;
47335;SDS011;33068;51.990;5.926;2023-02-02T01:27:22;29.38;;;3.95;;
47335;SDS011;33068;51.990;5.926;2023-02-02T01:29:50;22.70;;;3.25;;
47335;SDS011;33068;51.990;5.926;2023-02-02T01:32:18;27.38;;;3.80;;
47335;SDS011;33068;51.990;5.926;2023-02-02T01:34:45;21.98;;;3.20;;
47335;SDS011;33068;51.990;5.926;2023-02-02T01:37:14;17.63;;;3.10;;
47335;SDS011;33068;51.990;5.926;2023-02-02T01:39:41;22.42;;;3.35;;
47335;SDS011;33068;51.990;5.926;2023-02-02T01:42:10;22.17;;;3.10;;
47335;SDS011;33068;51.990;5.926;2023-02-02T01:47:46;18.52;;;3.08;;
47335;SDS011;33068;51.990;5.926;2023-02-02T01:50:17;24.25;;;3.10;;
47335;SDS011;33068;51.990;5.926;2023-02-02T01:52:49;16.58;;;3.45;;
47335;SDS011;33068;51.990;5.926;2023-02-02T01:55:19;34.92;;;4.32;;
47335;SDS011;33068;51.990;5.926;2023-02-02T01:57:50;6.20;;;2.30;;
47335;SDS011;33068;51.990;5.926;2023-02-02T02:00:21;23.58;;;3.58;;
47335;SDS011;33068;51.990;5.926;2023-02-02T02:14:11;16.33;;;3.33;;
47335;SDS011;33068;51.990;5.926;2023-02-02T02:17:02;16.13;;;2.92;;
47335;SDS011;33068;51.990;5.926;2023-02-02T02:20:09;22.02;;;3.10;;
47335;SDS011;33068;51.990;5.926;2023-02-02T02:29:25;12.27;;;1.73;;
47335;SDS011;33068;51.990;5.926;2023-02-02T02:32:22;12.05;;;2.45;;
47335;SDS011;33068;51.990;5.926;2023-02-02T02:35:00;8.82;;;1.33;;
47335;SDS011;33068;51.990;5.926;2023-02-02T02:37:36;16.98;;;1.40;;
47335;SDS011;33068;51.990;5.926;2023-02-02T02:40:10;16.70;;;1.95;;
47335;SDS011;33068;51.990;5.926;2023-02-02T02:42:50;9.40;;;1.35;;
47335;SDS011;33068;51.990;5.926;2023-02-02T02:45:24;8.83;;;2.00;;
47335;SDS011;33068;51.990;5.926;2023-02-02T02:47:56;8.85;;;1.35;;
47335;SDS011;33068;51.990;5.926;2023-02-02T02:50:25;4.90;;;0.80;;
47335;SDS011;33068;51.990;5.926;2023-02-02T02:52:59;12.07;;;1.60;;
47335;SDS011;33068;51.990;5.926;2023-02-02T02:56:02;9.13;;;1.75;;
47335;SDS011;33068;51.990;5.926;2023-02-02T03:02:14;11.52;;;2.17;;
47335;SDS011;33068;51.990;5.926;2023-02-02T03:08:40;14.13;;;3.10;;
47335;SDS011;33068;51.990;5.926;2023-02-02T03:11:40;19.98;;;3.42;;
47335;SDS011;33068;51.990;5.926;2023-02-02T03:14:20;13.77;;;4.13;;
47335;SDS011;33068;51.990;5.926;2023-02-02T03:17:10;20.52;;;4.22;;
47335;SDS011;33068;51.990;5.926;2023-02-02T03:20:12;16.90;;;4.30;;
47335;SDS011;33068;51.990;5.926;2023-02-02T03:22:50;12.57;;;4.28;;
47335;SDS011;33068;51.990;5.926;2023-02-02T03:25:37;13.20;;;4.25;;
47335;SDS011;33068;51.990;5.926;2023-02-02T03:28:12;15.48;;;4.40;;
47335;SDS011;33068;51.990;5.926;2023-02-02T03:30:45;31.02;;;4.53;;
47335;SDS011;33068;51.990;5.926;2023-02-02T03:33:22;11.25;;;3.72;;
47335;SDS011;33068;51.990;5.926;2023-02-02T03:35:52;24.90;;;3.88;;
47335;SDS011;33068;51.990;5.926;2023-02-02T03:38:20;15.95;;;3.38;;
47335;SDS011;33068;51.990;5.926;2023-02-02T03:40:48;18.20;;;3.80;;
47335;SDS011;33068;51.990;5.926;2023-02-02T03:43:21;15.45;;;3.13;;
47335;SDS011;33068;51.990;5.926;2023-02-02T03:45:57;22.45;;;4.25;;
47335;SDS011;33068;51.990;5.926;2023-02-02T03:48:27;18.67;;;4.65;;
47335;SDS011;33068;51.990;5.926;2023-02-02T03:50:54;18.00;;;3.00;;
47335;SDS011;33068;51.990;5.926;2023-02-02T03:53:22;20.25;;;4.03;;
47335;SDS011;33068;51.990;5.926;2023-02-02T03:55:51;26.27;;;4.13;;
47335;SDS011;33068;51.990;5.926;2023-02-02T03:58:19;14.93;;;3.50;;
47335;SDS011;33068;51.990;5.926;2023-02-02T04:00:46;21.60;;;3.80;;
47335;SDS011;33068;51.990;5.926;2023-02-02T04:03:14;27.40;;;3.80;;
47335;SDS011;33068;51.990;5.926;2023-02-02T04:05:47;13.02;;;4.20;;
47335;SDS011;33068;51.990;5.926;2023-02-02T04:08:15;23.05;;;3.58;;
47335;SDS011;33068;51.990;5.926;2023-02-02T04:10:42;27.33;;;3.63;;
47335;SDS011;33068;51.990;5.926;2023-02-02T04:13:11;21.52;;;3.58;;
47335;SDS011;33068;51.990;5.926;2023-02-02T04:15:39;25.33;;;3.78;;
47335;SDS011;33068;51.990;5.926;2023-02-02T04:18:08;22.98;;;5.15;;
47335;SDS011;33068;51.990;5.926;2023-02-02T04:20:36;30.30;;;4.13;;
47335;SDS011;33068;51.990;5.926;2023-02-02T04:23:03;24.50;;;3.58;;
47335;SDS011;33068;51.990;5.926;2023-02-02T04:25:30;25.95;;;4.40;;
47335;SDS011;33068;51.990;5.926;2023-02-02T04:27:57;25.80;;;3.45;;
47335;SDS011;33068;51.990;5.926;2023-02-02T04:30:26;19.48;;;4.07;;
47335;SDS011;33068;51.990;5.926;2023-02-02T04:32:53;19.35;;;3.53;;
47335;SDS011;33068;51.990;5.926;2023-02-02T04:35:21;14.43;;;2.88;;
47335;SDS011;33068;51.990;5.926;2023-02-02T04:37:48;21.52;;;3.90;;
47335;SDS011;33068;51.990;5.926;2023-02-02T04:40:15;24.80;;;4.03;;
47335;SDS011;33068;51.990;5.926;2023-02-02T04:42:42;15.85;;;3.20;;
47335;SDS011;33068;51.990;5.926;2023-02-02T04:45:10;24.40;;;3.80;;
47335;SDS011;33068;51.990;5.926;2023-02-02T04:47:38;15.77;;;3.13;;
47335;SDS011;33068;51.990;5.926;2023-02-02T04:50:07;25.75;;;3.35;;
47335;SDS011;33068;51.990;5.926;2023-02-02T04:52:36;22.38;;;3.33;;
47335;SDS011;33068;51.990;5.926;2023-02-02T04:55:03;17.23;;;2.80;;
47335;SDS011;33068;51.990;5.926;2023-02-02T04:57:31;21.25;;;3.00;;
47335;SDS011;33068;51.990;5.926;2023-02-02T04:59:59;28.10;;;3.38;;
47335;SDS011;33068;51.990;5.926;2023-02-02T05:02:26;26.98;;;3.05;;
47335;SDS011;33068;51.990;5.926;2023-02-02T05:04:54;24.15;;;4.13;;
47335;SDS011;33068;51.990;5.926;2023-02-02T05:07:21;19.55;;;3.70;;
47335;SDS011;33068;51.990;5.926;2023-02-02T05:09:48;18.70;;;3.75;;
47335;SDS011;33068;51.990;5.926;2023-02-02T05:12:15;15.27;;;2.90;;
47335;SDS011;33068;51.990;5.926;2023-02-02T05:14:43;16.73;;;2.90;;
47335;SDS011;33068;51.990;5.926;2023-02-02T05:17:10;27.42;;;3.17;;
47335;SDS011;33068;51.990;5.926;2023-02-02T05:19:37;19.98;;;3.05;;
47335;SDS011;33068;51.990;5.926;2023-02-02T05:22:05;26.02;;;3.70;;
47335;SDS011;33068;51.990;5.926;2023-02-02T05:24:33;17.25;;;2.53;;
47335;SDS011;33068;51.990;5.926;2023-02-02T05:27:01;19.92;;;2.70;;
47335;SDS011;33068;51.990;5.926;2023-02-02T05:29:29;22.27;;;3.15;;
47335;SDS011;33068;51.990;5.926;2023-02-02T05:31:56;21.20;;;3.30;;
47335;SDS011;33068;51.990;5.926;2023-02-02T05:34:23;19.65;;;2.92;;
47335;SDS011;33068;51.990;5.926;2023-02-02T05:36:51;18.30;;;2.72;;
47335;SDS011;33068;51.990;5.926;2023-02-02T05:39:19;22.13;;;2.83;;
47335;SDS011;33068;51.990;5.926;2023-02-02T05:42:09;19.05;;;3.38;;
47335;SDS011;33068;51.990;5.926;2023-02-02T05:44:48;19.17;;;3.83;;
47335;SDS011;33068;51.990;5.926;2023-02-02T05:47:16;17.83;;;2.65;;
47335;SDS011;33068;51.990;5.926;2023-02-02T05:49:46;20.02;;;3.13;;
47335;SDS011;33068;51.990;5.926;2023-02-02T05:52:13;17.80;;;3.13;;
47335;SDS011;33068;51.990;5.926;2023-02-02T05:55:03;21.17;;;3.40;;
47335;SDS011;33068;51.990;5.926;2023-02-02T05:57:45;23.60;;;3.55;;
47335;SDS011;33068;51.990;5.926;2023-02-02T06:00:22;20.05;;;3.15;;
47335;SDS011;33068;51.990;5.926;2023-02-02T06:02:49;22.95;;;3.47;;
47335;SDS011;33068;51.990;5.926;2023-02-02T06:05:19;13.50;;;3.13;;
47335;SDS011;33068;51.990;5.926;2023-02-02T06:07:59;15.43;;;3.15;;
47335;SDS011;33068;51.990;5.926;2023-02-02T06:10:29;20.05;;;3.80;;
47335;SDS011;33068;51.990;5.926;2023-02-02T06:13:25;13.90;;;3.45;;
47335;SDS011;33068;51.990;5.926;2023-02-02T06:15:55;29.73;;;3.72;;
47335;SDS011;33068;51.990;5.926;2023-02-02T06:18:25;16.80;;;3.78;;
47335;SDS011;33068;51.990;5.926;2023-02-02T06:21:01;18.63;;;4.85;;
47335;SDS011;33068;51.990;5.926;2023-02-02T06:23:36;18.73;;;3.08;;
47335;SDS011;33068;51.990;5.926;2023-02-02T06:26:18;18.17;;;3.60;;
47335;SDS011;33068;51.990;5.926;2023-02-02T06:31:44;14.82;;;3.03;;
47335;SDS011;33068;51.990;5.926;2023-02-02T06:34:11;18.35;;;3.60;;
47335;SDS011;33068;51.990;5.926;2023-02-02T06:36:39;21.75;;;3.85;;
47335;SDS011;33068;51.990;5.926;2023-02-02T06:39:07;24.83;;;3.72;;
47335;SDS011;33068;51.990;5.926;2023-02-02T06:41:36;16.38;;;3.15;;
47335;SDS011;33068;51.990;5.926;2023-02-02T06:44:05;16.48;;;2.80;;
47335;SDS011;33068;51.990;5.926;2023-02-02T06:46:35;17.08;;;3.03;;
47335;SDS011;33068;51.990;5.926;2023-02-02T06:49:07;13.73;;;2.58;;
47335;SDS011;33068;51.990;5.926;2023-02-02T06:51:39;17.15;;;2.80;;
47335;SDS011;33068;51.990;5.926;2023-02-02T06:54:07;15.25;;;4.13;;
47335;SDS011;33068;51.990;5.926;2023-02-02T06:56:36;19.58;;;3.45;;
47335;SDS011;33068;51.990;5.926;2023-02-02T06:59:04;18.33;;;3.30;;
47335;SDS011;33068;51.990;5.926;2023-02-02T07:01:31;22.30;;;4.78;;
47335;SDS011;33068;51.990;5.926;2023-02-02T07:03:59;19.88;;;3.45;;
47335;SDS011;33068;51.990;5.926;2023-02-02T07:06:27;20.30;;;3.05;;
47335;SDS011;33068;51.990;5.926;2023-02-02T07:08:54;13.30;;;3.67;;
47335;SDS011;33068;51.990;5.926;2023-02-02T07:11:25;19.83;;;4.07;;
47335;SDS011;33068;51.990;5.926;2023-02-02T07:13:54;15.65;;;3.83;;
47335;SDS011;33068;51.990;5.926;2023-02-02T07:16:23;20.02;;;4.40;;
47335;SDS011;33068;51.990;5.926;2023-02-02T07:18:50;18.88;;;3.72;;
47335;SDS011;33068;51.990;5.926;2023-02-02T07:21:21;17.13;;;4.22;;
47335;SDS011;33068;51.990;5.926;2023-02-02T07:23:50;18.23;;;3.65;;
47335;SDS011;33068;51.990;5.926;2023-02-02T07:26:18;20.73;;;3.38;;
47335;SDS011;33068;51.990;5.926;2023-02-02T07:28:45;25.52;;;4.63;;
47335;SDS011;33068;51.990;5.926;2023-02-02T07:31:15;28.27;;;4.75;;
47335;SDS011;33068;51.990;5.926;2023-02-02T07:33:44;20.02;;;4.20;;
47335;SDS011;33068;51.990;5.926;2023-02-02T07:36:13;21.33;;;4.65;;
47335;SDS011;33068;51.990;5.926;2023-02-02T07:38:42;18.08;;;3.97;;
47335;SDS011;33068;51.990;5.926;2023-02-02T07:41:09;22.88;;;4.53;;
47335;SDS011;33068;51.990;5.926;2023-02-02T07:43:37;14.43;;;4.10;;
47335;SDS011;33068;51.990;5.926;2023-02-02T07:46:07;19.90;;;4.07;;
47335;SDS011;33068;51.990;5.926;2023-02-02T07:48:40;17.38;;;4.28;;
47335;SDS011;33068;51.990;5.926;2023-02-02T07:51:08;19.60;;;4.82;;
47335;SDS011;33068;51.990;5.926;2023-02-02T07:53:42;24.38;;;4.88;;
47335;SDS011;33068;51.990;5.926;2023-02-02T07:56:12;24.73;;;4.78;;
47335;SDS011;33068;51.990;5.926;2023-02-02T07:58:42;31.60;;;5.40;;
47335;SDS011;33068;51.990;5.926;2023-02-02T08:01:11;23.23;;;4.85;;
47335;SDS011;33068;51.990;5.926;2023-02-02T08:03:41;24.25;;;5.55;;
47335;SDS011;33068;51.990;5.926;2023-02-02T08:06:10;19.90;;;5.18;;
47335;SDS011;33068;51.990;5.926;2023-02-02T08:08:40;24.10;;;5.18;;
47335;SDS011;33068;51.990;5.926;2023-02-02T08:11:07;23.25;;;6.20;;
47335;SDS011;33068;51.990;5.926;2023-02-02T08:13:36;15.18;;;4.95;;
47335;SDS011;33068;51.990;5.926;2023-02-02T08:16:03;24.15;;;5.25;;
47335;SDS011;33068;51.990;5.926;2023-02-02T08:18:31;24.63;;;5.95;;
47335;SDS011;33068;51.990;5.926;2023-02-02T08:21:00;23.95;;;5.63;;
47335;SDS011;33068;51.990;5.926;2023-02-02T08:23:29;23.63;;;5.35;;
47335;SDS011;33068;51.990;5.926;2023-02-02T08:26:04;23.40;;;5.45;;
47335;SDS011;33068;51.990;5.926;2023-02-02T08:28:32;23.00;;;6.18;;
47335;SDS011;33068;51.990;5.926;2023-02-02T08:31:03;24.25;;;5.20;;
47335;SDS011;33068;51.990;5.926;2023-02-02T08:33:31;23.92;;;5.43;;
47335;SDS011;33068;51.990;5.926;2023-02-02T08:35:59;24.35;;;5.40;;
47335;SDS011;33068;51.990;5.926;2023-02-02T08:38:27;17.60;;;5.93;;
47335;SDS011;33068;51.990;5.926;2023-02-02T08:40:54;33.47;;;5.85;;
47335;SDS011;33068;51.990;5.926;2023-02-02T08:43:22;24.48;;;4.93;;
47335;SDS011;33068;51.990;5.926;2023-02-02T08:50:50;19.10;;;5.22;;
47335;SDS011;33068;51.990;5.926;2023-02-02T08:56:40;26.15;;;4.75;;
47335;SDS011;33068;51.990;5.926;2023-02-02T08:59:11;22.52;;;4.80;;
47335;SDS011;33068;51.990;5.926;2023-02-02T09:01:38;21.02;;;4.40;;
47335;SDS011;33068;51.990;5.926;2023-02-02T09:04:14;22.38;;;4.65;;
47335;SDS011;33068;51.990;5.926;2023-02-02T09:07:35;24.35;;;4.03;;
47335;SDS011;33068;51.990;5.926;2023-02-02T09:10:48;24.75;;;4.47;;
47335;SDS011;33068;51.990;5.926;2023-02-02T09:16:52;17.98;;;4.45;;
47335;SDS011;33068;51.990;5.926;2023-02-02T09:19:31;21.60;;;3.75;;
47335;SDS011;33068;51.990;5.926;2023-02-02T09:22:00;22.70;;;4.43;;
47335;SDS011;33068;51.990;5.926;2023-02-02T09:24:30;20.92;;;3.38;;
47335;SDS011;33068;51.990;5.926;2023-02-02T09:27:26;17.15;;;3.78;;
47335;SDS011;33068;51.990;5.926;2023-02-02T09:29:58;26.15;;;3.40;;
47335;SDS011;33068;51.990;5.926;2023-02-02T09:32:30;18.70;;;4.55;;
47335;SDS011;33068;51.990;5.926;2023-02-02T09:35:03;22.65;;;4.20;;
47335;SDS011;33068;51.990;5.926;2023-02-02T09:37:37;19.73;;;4.05;;
47335;SDS011;33068;51.990;5.926;2023-02-02T09:40:12;21.00;;;2.83;;
47335;SDS011;33068;51.990;5.926;2023-02-02T09:42:52;22.17;;;3.58;;
47335;SDS011;33068;51.990;5.926;2023-02-02T09:45:32;14.43;;;3.00;;
47335;SDS011;33068;51.990;5.926;2023-02-02T09:48:14;16.85;;;3.22;;
47335;SDS011;33068;51.990;5.926;2023-02-02T09:50:50;21.25;;;3.20;;
47335;SDS011;33068;51.990;5.926;2023-02-02T09:53:27;16.83;;;3.10;;
47335;SDS011;33068;51.990;5.926;2023-02-02T09:56:13;23.83;;;3.65;;
47335;SDS011;33068;51.990;5.926;2023-02-02T09:58:48;25.08;;;3.50;;
47335;SDS011;33068;51.990;5.926;2023-02-02T10:01:21;19.60;;;2.50;;
47335;SDS011;33068;51.990;5.926;2023-02-02T10:03:55;18.70;;;2.70;;
47335;SDS011;33068;51.990;5.926;2023-02-02T10:06:28;20.13;;;3.28;;
47335;SDS011;33068;51.990;5.926;2023-02-02T10:09:02;18.25;;;2.80;;
47335;SDS011;33068;51.990;5.926;2023-02-02T10:11:48;14.93;;;3.10;;
47335;SDS011;33068;51.990;5.926;2023-02-02T10:14:24;9.27;;;2.22;;
47335;SDS011;33068;51.990;5.926;2023-02-02T10:16:59;19.05;;;2.67;;
47335;SDS011;33068;51.990;5.926;2023-02-02T10:23:12;20.48;;;3.10;;
47335;SDS011;33068;51.990;5.926;2023-02-02T10:25:46;11.27;;;2.72;;
47335;SDS011;33068;51.990;5.926;2023-02-02T10:28:24;17.45;;;2.50;;
47335;SDS011;33068;51.990;5.926;2023-02-02T10:31:12;21.17;;;3.10;;
47335;SDS011;33068;51.990;5.926;2023-02-02T10:36:32;14.43;;;3.22;;
47335;SDS011;33068;51.990;5.926;2023-02-02T10:39:13;16.40;;;3.30;;
47335;SDS011;33068;51.990;5.926;2023-02-02T10:41:52;14.23;;;2.55;;
47335;SDS011;33068;51.990;5.926;2023-02-02T10:44:30;13.35;;;3.58;;
47335;SDS011;33068;51.990;5.926;2023-02-02T10:47:04;5.18;;;2.53;;
47335;SDS011;33068;51.990;5.926;2023-02-02T10:49:38;15.93;;;2.85;;
47335;SDS011;33068;51.990;5.926;2023-02-02T10:52:12;18.77;;;3.05;;
47335;SDS011;33068;51.990;5.926;2023-02-02T10:54:52;14.18;;;3.13;;
47335;SDS011;33068;51.990;5.926;2023-02-02T10:57:29;12.70;;;3.63;;
47335;SDS011;33068;51.990;5.926;2023-02-02T11:00:05;15.85;;;3.63;;
47335;SDS011;33068;51.990;5.926;2023-02-02T11:02:43;13.18;;;3.63;;
47335;SDS011;33068;51.990;5.926;2023-02-02T11:05:19;18.52;;;3.38;;
47335;SDS011;33068;51.990;5.926;2023-02-02T11:08:12;15.80;;;3.60;;
47335;SDS011;33068;51.990;5.926;2023-02-02T11:10:41;12.13;;;2.92;;
47335;SDS011;33068;51.990;5.926;2023-02-02T11:13:14;12.55;;;2.53;;
47335;SDS011;33068;51.990;5.926;2023-02-02T11:15:45;11.23;;;3.30;;
47335;SDS011;33068;51.990;5.926;2023-02-02T11:18:13;13.20;;;3.60;;
47335;SDS011;33068;51.990;5.926;2023-02-02T11:20:53;18.98;;;3.33;;
47335;SDS011;33068;51.990;5.926;2023-02-02T11:23:21;14.30;;;3.35;;
47335;SDS011;33068;51.990;5.926;2023-02-02T11:25:58;15.48;;;3.55;;
47335;SDS011;33068;51.990;5.926;2023-02-02T11:28:30;13.15;;;3.20;;
47335;SDS011;33068;51.990;5.926;2023-02-02T11:31:01;12.52;;;3.08;;
47335;SDS011;33068;51.990;5.926;2023-02-02T11:33:41;13.25;;;3.88;;
47335;SDS011;33068;51.990;5.926;2023-02-02T11:36:18;13.07;;;2.85;;
47335;SDS011;33068;51.990;5.926;2023-02-02T11:38:47;17.60;;;4.05;;
47335;SDS011;33068;51.990;5.926;2023-02-02T11:41:17;19.50;;;3.45;;
47335;SDS011;33068;51.990;5.926;2023-02-02T11:43:47;22.30;;;4.05;;
47335;SDS011;33068;51.990;5.926;2023-02-02T11:46:17;15.23;;;3.38;;
47335;SDS011;33068;51.990;5.926;2023-02-02T11:48:47;20.48;;;3.67;;
47335;SDS011;33068;51.990;5.926;2023-02-02T11:51:22;13.18;;;3.33;;
47335;SDS011;33068;51.990;5.926;2023-02-02T11:54:00;13.18;;;3.40;;
47335;SDS011;33068;51.990;5.926;2023-02-02T11:56:31;15.00;;;3.17;;
47335;SDS011;33068;51.990;5.926;2023-02-02T11:59:02;17.20;;;2.50;;
47335;SDS011;33068;51.990;5.926;2023-02-02T12:05:30;12.30;;;2.78;;
47335;SDS011;33068;51.990;5.926;2023-02-02T12:08:01;11.18;;;2.75;;
47335;SDS011;33068;51.990;5.926;2023-02-02T12:10:30;20.13;;;3.53;;
47335;SDS011;33068;51.990;5.926;2023-02-02T12:13:04;10.98;;;2.95;;
47335;SDS011;33068;51.990;5.926;2023-02-02T12:15:39;12.13;;;3.22;;
47335;SDS011;33068;51.990;5.926;2023-02-02T12:18:18;16.13;;;2.65;;
47335;SDS011;33068;51.990;5.926;2023-02-02T12:21:03;18.13;;;2.45;;
47335;SDS011;33068;51.990;5.926;2023-02-02T12:23:38;26.30;;;3.08;;
47335;SDS011;33068;51.990;5.926;2023-02-02T12:26:24;16.08;;;2.97;;
47335;SDS011;33068;51.990;5.926;2023-02-02T12:28:59;16.08;;;3.20;;
47335;SDS011;33068;51.990;5.926;2023-02-02T12:31:42;21.25;;;2.80;;
47335;SDS011;33068;51.990;5.926;2023-02-02T12:34:19;19.35;;;2.65;;
47335;SDS011;33068;51.990;5.926;2023-02-02T12:36:56;11.45;;;2.30;;
47335;SDS011;33068;51.990;5.926;2023-02-02T12:39:35;18.42;;;2.97;;
47335;SDS011;33068;51.990;5.926;2023-02-02T12:45:45;15.25;;;2.22;;
47335;SDS011;33068;51.990;5.926;2023-02-02T12:49:17;11.73;;;1.88;;
47335;SDS011;33068;51.990;5.926;2023-02-02T12:52:19;12.60;;;1.98;;
47335;SDS011;33068;51.990;5.926;2023-02-02T12:55:27;15.05;;;2.65;;
47335;SDS011;33068;51.990;5.926;2023-02-02T12:58:08;14.35;;;2.80;;
47335;SDS011;33068;51.990;5.926;2023-02-02T13:08:04;18.20;;;2.20;;
47335;SDS011;33068;51.990;5.926;2023-02-02T13:10:43;10.73;;;1.88;;
47335;SDS011;33068;51.990;5.926;2023-02-02T13:13:57;16.13;;;2.30;;
47335;SDS011;33068;51.990;5.926;2023-02-02T13:16:26;20.55;;;2.25;;
47335;SDS011;33068;51.990;5.926;2023-02-02T13:19:09;19.42;;;3.38;;
47335;SDS011;33068;51.990;5.926;2023-02-02T13:21:57;16.35;;;2.47;;
47335;SDS011;33068;51.990;5.926;2023-02-02T13:24:45;19.05;;;2.95;;
47335;SDS011;33068;51.990;5.926;2023-02-02T13:27:43;15.55;;;2.30;;
47335;SDS011;33068;51.990;5.926;2023-02-02T13:30:21;16.88;;;2.78;;
47335;SDS011;33068;51.990;5.926;2023-02-02T13:33:04;20.70;;;3.28;;
47335;SDS011;33068;51.990;5.926;2023-02-02T13:36:13;19.13;;;2.70;;
47335;SDS011;33068;51.990;5.926;2023-02-02T13:38:54;18.00;;;3.97;;
47335;SDS011;33068;51.990;5.926;2023-02-02T13:41:28;14.60;;;3.63;;
47335;SDS011;33068;51.990;5.926;2023-02-02T13:44:23;15.13;;;4.03;;
47335;SDS011;33068;51.990;5.926;2023-02-02T13:47:09;14.43;;;4.13;;
47335;SDS011;33068;51.990;5.926;2023-02-02T13:52:36;16.83;;;5.28;;
47335;SDS011;33068;51.990;5.926;2023-02-02T13:55:33;17.88;;;5.57;;
47335;SDS011;33068;51.990;5.926;2023-02-02T14:01:21;17.08;;;6.75;;
47335;SDS011;33068;51.990;5.926;2023-02-02T14:04:21;18.70;;;6.30;;
47335;SDS011;33068;51.990;5.926;2023-02-02T14:07:54;16.45;;;6.45;;
47335;SDS011;33068;51.990;5.926;2023-02-02T14:10:31;17.15;;;8.00;;
47335;SDS011;33068;51.990;5.926;2023-02-02T14:13:14;14.10;;;8.10;;
47335;SDS011;33068;51.990;5.926;2023-02-02T14:16:01;20.25;;;8.13;;
47335;SDS011;33068;51.990;5.926;2023-02-02T14:24:39;26.88;;;9.85;;
47335;SDS011;33068;51.990;5.926;2023-02-02T14:34:30;24.08;;;10.00;;
47335;SDS011;33068;51.990;5.926;2023-02-02T14:41:20;21.48;;;11.30;;
47335;SDS011;33068;51.990;5.926;2023-02-02T14:47:22;17.88;;;9.18;;
47335;SDS011;33068;51.990;5.926;2023-02-02T14:48:42;15.25;;;8.13;;
47335;SDS011;33068;51.990;5.926;2023-02-02T14:51:50;17.92;;;8.77;;
47335;SDS011;33068;51.990;5.926;2023-02-02T14:54:37;18.55;;;9.15;;
47335;SDS011;33068;51.990;5.926;2023-02-02T15:00:40;13.73;;;8.07;;
47335;SDS011;33068;51.990;5.926;2023-02-02T15:11:40;9.38;;;7.13;;
47335;SDS011;33068;51.990;5.926;2023-02-02T15:15:14;14.90;;;8.10;;
47335;SDS011;33068;51.990;5.926;2023-02-02T15:18:02;16.58;;;8.35;;
47335;SDS011;33068;51.990;5.926;2023-02-02T15:20:39;11.45;;;8.20;;
47335;SDS011;33068;51.990;5.926;2023-02-02T15:23:16;13.23;;;7.53;;
47335;SDS011;33068;51.990;5.926;2023-02-02T15:25:55;12.77;;;8.57;;
47335;SDS011;33068;51.990;5.926;2023-02-02T15:28:31;17.40;;;9.15;;
47335;SDS011;33068;51.990;5.926;2023-02-02T15:31:06;15.25;;;9.15;;
47335;SDS011;33068;51.990;5.926;2023-02-02T15:33:50;12.75;;;8.40;;
47335;SDS011;33068;51.990;5.926;2023-02-02T15:36:26;10.00;;;7.55;;
47335;SDS011;33068;51.990;5.926;2023-02-02T15:39:10;9.60;;;7.68;;
47335;SDS011;33068;51.990;5.926;2023-02-02T15:41:47;10.93;;;7.53;;
47335;SDS011;33068;51.990;5.926;2023-02-02T15:47:34;11.88;;;7.15;;
47335;SDS011;33068;51.990;5.926;2023-02-02T15:50:14;8.02;;;6.88;;
47335;SDS011;33068;51.990;5.926;2023-02-02T15:52:55;12.70;;;7.82;;
47335;SDS011;33068;51.990;5.926;2023-02-02T15:58:30;9.15;;;7.15;;
47335;SDS011;33068;51.990;5.926;2023-02-02T16:01:01;10.73;;;6.88;;
47335;SDS011;33068;51.990;5.926;2023-02-02T16:03:40;11.50;;;7.22;;
47335;SDS011;33068;51.990;5.926;2023-02-02T16:06:16;8.98;;;6.68;;
47335;SDS011;33068;51.990;5.926;2023-02-02T16:09:00;12.93;;;7.90;;
47335;SDS011;33068;51.990;5.926;2023-02-02T16:11:31;10.30;;;8.63;;
47335;SDS011;33068;51.990;5.926;2023-02-02T16:14:04;11.63;;;8.57;;
47335;SDS011;33068;51.990;5.926;2023-02-02T16:16:50;14.40;;;8.95;;
47335;SDS011;33068;51.990;5.926;2023-02-02T16:19:21;16.25;;;10.57;;
47335;SDS011;33068;51.990;5.926;2023-02-02T16:21:51;12.63;;;9.23;;
47335;SDS011;33068;51.990;5.926;2023-02-02T16:24:22;21.10;;;10.65;;
47335;SDS011;33068;51.990;5.926;2023-02-02T16:27:01;16.00;;;10.02;;
47335;SDS011;33068;51.990;5.926;2023-02-02T16:29:37;19.13;;;10.45;;
47335;SDS011;33068;51.990;5.926;2023-02-02T16:32:25;14.50;;;10.35;;
47335;SDS011;33068;51.990;5.926;2023-02-02T16:34:54;17.67;;;10.90;;
47335;SDS011;33068;51.990;5.926;2023-02-02T16:37:27;20.83;;;10.85;;
47335;SDS011;33068;51.990;5.926;2023-02-02T16:42:46;15.82;;;11.85;;
47335;SDS011;33068;51.990;5.926;2023-02-02T16:45:36;16.00;;;11.20;;
47335;SDS011;33068;51.990;5.926;2023-02-02T16:48:26;17.17;;;11.60;;
47335;SDS011;33068;51.990;5.926;2023-02-02T16:54:12;15.95;;;11.32;;
47335;SDS011;33068;51.990;5.926;2023-02-02T16:56:58;19.42;;;12.77;;
47335;SDS011;33068;51.990;5.926;2023-02-02T16:59:28;20.70;;;13.27;;
47335;SDS011;33068;51.990;5.926;2023-02-02T17:02:03;24.48;;;15.10;;
47335;SDS011;33068;51.990;5.926;2023-02-02T17:04:46;26.05;;;16.10;;
47335;SDS011;33068;51.990;5.926;2023-02-02T17:07:18;25.83;;;16.10;;
47335;SDS011;33068;51.990;5.926;2023-02-02T17:10:08;25.80;;;17.20;;
47335;SDS011;33068;51.990;5.926;2023-02-02T17:12:43;41.58;;;18.70;;
47335;SDS011;33068;51.990;5.926;2023-02-02T17:15:23;34.47;;;19.20;;
47335;SDS011;33068;51.990;5.926;2023-02-02T17:18:01;46.15;;;20.55;;